createdAt,value
2022-09-18T00:01:01.828Z,99.90
2022-09-18T00:03:30.058Z,99.90
2022-09-18T00:05:59.167Z,99.90
2022-09-18T00:08:26.976Z,99.90
2022-09-18T00:10:54.709Z,99.90
2022-09-18T00:13:22.448Z,99.90
2022-09-18T00:15:56.269Z,99.90
2022-09-18T00:18:24.036Z,99.90
2022-09-18T00:20:51.853Z,99.90
2022-09-18T00:23:21.124Z,99.90
2022-09-18T00:25:48.948Z,99.90
2022-09-18T00:28:16.675Z,99.90
2022-09-18T00:30:44.417Z,99.20
2022-09-18T00:33:12.176Z,98.80
2022-09-18T00:35:43.289Z,99.50
2022-09-18T00:38:11.453Z,99.70
2022-09-18T00:40:40.940Z,99.20
2022-09-18T00:43:19.928Z,99.90
2022-09-18T00:45:53.881Z,99.90
2022-09-18T00:48:23.525Z,99.90
2022-09-18T00:50:51.524Z,99.20
2022-09-18T00:53:19.436Z,98.60
2022-09-18T00:55:48.701Z,98.70
2022-09-18T00:58:16.671Z,99.00
2022-09-18T01:00:44.635Z,99.30
2022-09-18T01:03:13.130Z,97.70
2022-09-18T01:05:53.289Z,98.00
2022-09-18T01:08:31.932Z,98.50
2022-09-18T01:11:14.672Z,99.00
2022-09-18T01:13:54.207Z,99.90
2022-09-18T01:16:28.817Z,98.80
2022-09-18T01:19:09.182Z,99.30
2022-09-18T01:21:43.043Z,99.60
2022-09-18T01:24:35.149Z,99.90
2022-09-18T01:27:06.476Z,99.90
2022-09-18T01:29:48.939Z,99.90
2022-09-18T01:32:24.937Z,99.90
2022-09-18T01:35:09.367Z,99.60
2022-09-18T01:37:42.888Z,99.90
2022-09-18T01:40:15.049Z,99.90
2022-09-18T01:42:44.838Z,99.90
2022-09-18T01:45:17.893Z,99.30
2022-09-18T01:47:48.710Z,99.40
2022-09-18T01:50:18.543Z,99.90
2022-09-18T01:52:53.712Z,99.20
2022-09-18T01:55:27.016Z,99.30
2022-09-18T01:57:57.640Z,99.00
2022-09-18T02:00:28.443Z,99.30
2022-09-18T02:03:01.921Z,99.40
2022-09-18T02:05:33.294Z,98.30
2022-09-18T02:08:08.908Z,97.80
2022-09-18T02:10:42.572Z,98.70
2022-09-18T02:13:14.683Z,99.00
2022-09-18T02:15:48.730Z,99.00
2022-09-18T02:18:22.101Z,98.20
2022-09-18T02:20:50.482Z,97.50
2022-09-18T02:23:18.426Z,98.00
2022-09-18T02:25:51.287Z,97.90
2022-09-18T02:28:23.269Z,98.00
2022-09-18T02:30:52.798Z,97.50
2022-09-18T02:33:25.813Z,97.00
2022-09-18T02:36:05.996Z,95.70
2022-09-18T02:38:38.947Z,94.60
2022-09-18T02:41:20.245Z,94.20
2022-09-18T02:43:55.690Z,94.10
2022-09-18T02:46:33.310Z,92.30
2022-09-18T02:49:11.037Z,92.00
2022-09-18T02:51:47.311Z,93.10
2022-09-18T02:54:21.889Z,93.30
2022-09-18T02:56:54.044Z,93.50
2022-09-18T02:59:26.781Z,93.40
2022-09-18T03:01:57.661Z,93.60
2022-09-18T03:04:27.570Z,92.60
2022-09-18T03:06:56.269Z,92.30
2022-09-18T03:09:24.801Z,92.70
2022-09-18T03:11:53.987Z,92.30
2022-09-18T03:14:21.773Z,91.90
2022-09-18T03:16:49.557Z,92.20
2022-09-18T03:19:18.871Z,91.90
2022-09-18T03:21:46.692Z,92.20
2022-09-18T03:24:14.438Z,91.30
2022-09-18T03:26:42.524Z,91.40
2022-09-18T03:29:10.530Z,91.80
2022-09-18T03:31:38.642Z,91.90
2022-09-18T03:34:06.815Z,92.00
2022-09-18T03:36:35.978Z,91.90
2022-09-18T03:39:04.138Z,91.40
2022-09-18T03:41:31.934Z,91.50
2022-09-18T03:43:59.836Z,90.90
2022-09-18T03:46:27.586Z,90.60
2022-09-18T03:48:55.418Z,90.90
2022-09-18T03:51:23.525Z,90.70
2022-09-18T03:53:52.602Z,89.80
2022-09-18T03:56:20.377Z,90.50
2022-09-18T03:58:48.114Z,89.00
2022-09-18T04:01:15.946Z,89.30
2022-09-18T04:03:43.729Z,89.60
2022-09-18T04:06:12.061Z,89.10
2022-09-18T04:08:39.836Z,90.20
2022-09-18T04:11:08.991Z,90.30
2022-09-18T04:13:36.739Z,90.70
2022-09-18T04:16:04.530Z,91.70
2022-09-18T04:18:32.326Z,91.70
2022-09-18T04:21:00.130Z,91.10
2022-09-18T04:23:27.872Z,91.10
2022-09-18T04:25:55.621Z,91.60
2022-09-18T04:28:24.788Z,91.10
2022-09-18T04:30:52.556Z,90.10
2022-09-18T04:33:20.348Z,90.70
2022-09-18T04:35:48.195Z,91.10
2022-09-18T04:38:16.016Z,91.50
2022-09-18T04:40:43.750Z,91.40
2022-09-18T04:43:11.606Z,91.70
2022-09-18T04:45:40.758Z,92.20
2022-09-18T04:48:08.490Z,92.50
2022-09-18T04:50:36.228Z,92.50
2022-09-18T04:53:04.134Z,92.90
2022-09-18T04:55:31.870Z,92.30
2022-09-18T04:57:59.616Z,93.50
2022-09-18T05:00:27.742Z,93.70
2022-09-18T05:02:56.950Z,94.00
2022-09-18T05:05:24.800Z,94.40
2022-09-18T05:07:52.536Z,94.90
2022-09-18T05:10:20.659Z,94.90
2022-09-18T05:12:49.062Z,96.00
2022-09-18T05:15:16.916Z,95.50
2022-09-18T05:17:44.733Z,96.20
2022-09-18T05:20:14.170Z,96.30
2022-09-18T05:22:46.798Z,97.10
2022-09-18T05:25:14.585Z,96.10
2022-09-18T05:27:42.322Z,96.50
2022-09-18T05:30:11.176Z,96.50
2022-09-18T05:32:38.958Z,97.30
2022-09-18T05:35:07.517Z,97.80
2022-09-18T05:37:36.657Z,96.60
2022-09-18T05:40:05.522Z,97.40
2022-09-18T05:42:33.445Z,96.40
2022-09-18T05:45:02.103Z,95.70
2022-09-18T05:47:32.369Z,95.70
2022-09-18T05:50:00.130Z,95.20
2022-09-18T05:52:27.915Z,94.60
2022-09-18T05:54:57.657Z,94.40
2022-09-18T05:57:25.552Z,94.90
2022-09-18T05:59:53.302Z,94.00
2022-09-18T06:02:21.098Z,94.40
2022-09-18T06:04:48.962Z,94.70
2022-09-18T06:07:17.508Z,94.30
2022-09-18T06:09:45.278Z,93.80
2022-09-18T06:12:14.428Z,92.90
2022-09-18T06:14:42.161Z,93.20
2022-09-18T06:17:09.930Z,94.00
2022-09-18T06:19:37.702Z,91.70
2022-09-18T06:22:05.666Z,92.20
2022-09-18T06:24:33.481Z,91.00
2022-09-18T06:27:01.210Z,91.80
2022-09-18T06:29:30.305Z,91.30
2022-09-18T06:31:58.059Z,90.20
2022-09-18T06:34:25.847Z,91.60
2022-09-18T06:36:53.594Z,91.30
2022-09-18T06:39:21.364Z,90.80
2022-09-18T06:41:49.614Z,90.10
2022-09-18T06:44:17.351Z,90.10
2022-09-18T06:46:48.088Z,89.70
2022-09-18T06:49:15.894Z,89.70
2022-09-18T06:51:45.593Z,89.20
2022-09-18T06:54:13.844Z,89.70
2022-09-18T06:56:41.706Z,88.70
2022-09-18T06:59:09.801Z,88.70
2022-09-18T07:01:37.614Z,86.60
2022-09-18T07:04:07.029Z,87.00
2022-09-18T07:06:34.786Z,86.20
2022-09-18T07:09:02.783Z,86.10
2022-09-18T07:11:30.660Z,86.50
2022-09-18T07:13:58.389Z,84.90
2022-09-18T07:16:26.204Z,83.60
2022-09-18T07:18:54.150Z,83.70
2022-09-18T07:21:23.446Z,84.10
2022-09-18T07:23:51.266Z,82.10
2022-09-18T07:26:19.620Z,83.30
2022-09-18T07:28:47.382Z,83.50
2022-09-18T07:31:15.241Z,82.30
2022-09-18T07:33:43.027Z,81.90
2022-09-18T07:36:10.784Z,82.70
2022-09-18T07:38:41.394Z,82.50
2022-09-18T07:41:09.234Z,81.10
2022-09-18T07:43:37.021Z,80.70
2022-09-18T07:46:04.809Z,80.80
2022-09-18T07:48:32.573Z,80.20
2022-09-18T07:51:00.452Z,81.70
2022-09-18T07:53:29.378Z,80.70
2022-09-18T07:55:58.774Z,79.50
2022-09-18T07:58:26.805Z,79.60
2022-09-18T08:00:54.592Z,80.80
2022-09-18T08:03:22.313Z,79.70
2022-09-18T08:05:50.118Z,79.40
2022-09-18T08:08:17.880Z,79.80
2022-09-18T08:10:46.126Z,80.20
2022-09-18T08:13:15.352Z,80.20
2022-09-18T08:15:44.233Z,78.80
2022-09-18T08:18:12.442Z,79.40
2022-09-18T08:20:40.320Z,79.70
2022-09-18T08:23:09.661Z,79.20
2022-09-18T08:25:38.211Z,77.70
2022-09-18T08:28:07.468Z,78.40
2022-09-18T08:30:37.469Z,78.10
2022-09-18T08:33:07.520Z,78.80
2022-09-18T08:35:35.623Z,77.90
2022-09-18T08:38:03.454Z,77.20
2022-09-18T08:40:56.041Z,77.50
2022-09-18T08:43:42.702Z,78.00
2022-09-18T08:46:15.897Z,78.20
2022-09-18T08:48:49.039Z,78.50
2022-09-18T08:51:20.722Z,77.90
2022-09-18T08:53:51.350Z,78.80
2022-09-18T08:56:24.183Z,79.10
2022-09-18T08:58:55.883Z,78.60
2022-09-18T09:01:33.772Z,78.40
2022-09-18T09:04:06.733Z,78.60
2022-09-18T09:06:51.420Z,77.40
2022-09-18T09:09:57.246Z,77.90
2022-09-18T09:12:36.534Z,77.10
2022-09-18T09:15:26.958Z,76.20
2022-09-18T09:18:05.649Z,77.10
2022-09-18T09:20:50.446Z,77.60
2022-09-18T09:23:23.837Z,76.10
2022-09-18T09:26:03.082Z,75.10
2022-09-18T09:28:35.185Z,76.00
2022-09-18T09:31:07.902Z,75.30
2022-09-18T09:33:41.727Z,76.30
2022-09-18T09:36:12.592Z,74.90
2022-09-18T09:38:46.181Z,75.40
2022-09-18T09:41:21.739Z,75.60
2022-09-18T09:43:58.474Z,74.40
2022-09-18T09:46:44.660Z,74.90
2022-09-18T09:49:18.767Z,73.30
2022-09-18T09:51:54.031Z,73.70
2022-09-18T09:54:22.040Z,73.80
2022-09-18T09:56:55.620Z,73.50
2022-09-18T09:59:29.761Z,73.00
2022-09-18T10:02:04.076Z,72.50
2022-09-18T10:04:38.981Z,71.90
2022-09-18T10:07:15.959Z,72.90
2022-09-18T10:09:52.338Z,72.10
2022-09-18T10:12:32.277Z,72.60
2022-09-18T10:15:14.114Z,71.80
2022-09-18T10:17:43.292Z,70.40
2022-09-18T10:20:16.943Z,70.40
2022-09-18T10:22:47.199Z,70.80
2022-09-18T10:25:24.342Z,71.20
2022-09-18T10:27:52.074Z,71.30
2022-09-18T10:30:20.032Z,71.20
2022-09-18T10:32:47.770Z,70.40
2022-09-18T10:35:43.383Z,71.50
2022-09-18T10:38:33.216Z,72.30
2022-09-18T10:41:20.217Z,71.00
2022-09-18T10:43:59.391Z,70.90
2022-09-18T10:46:29.959Z,69.60
2022-09-18T10:49:00.198Z,69.50
2022-09-18T10:51:29.723Z,69.10
2022-09-18T10:54:06.599Z,69.50
2022-09-18T10:56:34.422Z,67.70
2022-09-18T10:59:31.852Z,68.90
2022-09-18T11:02:01.528Z,68.00
2022-09-18T11:04:30.482Z,69.40
2022-09-18T11:07:03.053Z,69.00
2022-09-18T11:09:33.542Z,70.90
2022-09-18T11:12:01.625Z,69.80
2022-09-18T11:14:33.835Z,70.30
2022-09-18T11:17:03.089Z,70.00
2022-09-18T11:19:34.612Z,67.90
2022-09-18T11:22:06.738Z,67.70
2022-09-18T11:24:38.740Z,68.20
2022-09-18T11:27:20.187Z,67.40
2022-09-18T11:29:48.112Z,65.30
2022-09-18T11:32:19.992Z,65.10
2022-09-18T11:34:51.943Z,66.70
2022-09-18T11:37:30.208Z,66.90
2022-09-18T11:40:02.558Z,66.70
2022-09-18T11:42:31.484Z,66.00
2022-09-18T11:45:18.078Z,66.20
2022-09-18T11:47:52.045Z,67.30
2022-09-18T11:50:23.026Z,66.90
2022-09-18T11:52:54.933Z,66.30
2022-09-18T11:55:32.017Z,65.80
2022-09-18T11:58:03.162Z,66.20
2022-09-18T12:00:37.495Z,66.40
2022-09-18T12:03:14.180Z,65.70
2022-09-18T12:05:52.218Z,65.80
2022-09-18T12:08:25.990Z,65.80
2022-09-18T12:11:08.172Z,67.00
2022-09-18T12:13:48.310Z,65.30
2022-09-18T12:16:21.205Z,65.50
2022-09-18T12:18:56.731Z,65.30
2022-09-18T12:21:35.335Z,65.10
2022-09-18T12:24:04.852Z,63.40
2022-09-18T12:26:41.285Z,64.50
2022-09-18T12:29:29.683Z,63.70
2022-09-18T12:32:04.430Z,64.00
2022-09-18T12:34:41.187Z,63.10
2022-09-18T12:37:22.957Z,62.70
2022-09-18T12:40:16.592Z,62.20
2022-09-18T12:42:56.913Z,63.20
2022-09-18T12:45:52.921Z,63.70
2022-09-18T12:48:37.941Z,62.60
2022-09-18T12:51:26.003Z,63.80
2022-09-18T12:54:06.619Z,64.20
2022-09-18T12:56:50.659Z,64.70
2022-09-18T12:59:49.777Z,63.40
2022-09-18T13:02:28.630Z,63.90
2022-09-18T13:05:02.672Z,63.50
2022-09-18T13:07:34.470Z,64.10
2022-09-18T13:10:08.081Z,62.90
2022-09-18T13:12:41.834Z,62.40
2022-09-18T13:15:17.102Z,62.60
2022-09-18T13:17:49.750Z,62.80
2022-09-18T13:20:21.919Z,62.00
2022-09-18T13:22:53.411Z,62.40
2022-09-18T13:25:27.053Z,63.70
2022-09-18T13:27:58.115Z,62.20
2022-09-18T13:30:28.881Z,61.50
2022-09-18T13:32:58.118Z,63.50
2022-09-18T13:35:30.232Z,63.50
2022-09-18T13:38:07.247Z,63.00
2022-09-18T13:40:37.629Z,63.40
2022-09-18T13:43:36.624Z,63.20
2022-09-18T13:46:07.342Z,64.20
2022-09-18T13:48:42.762Z,63.60
2022-09-18T13:51:17.856Z,62.80
2022-09-18T13:53:46.102Z,62.90
2022-09-18T13:56:15.949Z,62.70
2022-09-18T13:58:52.554Z,63.10
2022-09-18T14:01:53.906Z,63.20
2022-09-18T14:04:50.623Z,62.60
2022-09-18T14:07:57.972Z,63.70
2022-09-18T14:10:29.697Z,65.10
2022-09-18T14:13:22.503Z,63.70
2022-09-18T14:16:01.834Z,64.40
2022-09-18T14:18:31.787Z,63.40
2022-09-18T14:21:15.551Z,63.70
2022-09-18T14:24:25.297Z,63.10
2022-09-18T14:27:02.278Z,63.60
2022-09-18T14:29:33.533Z,63.80
2022-09-18T14:32:03.447Z,63.10
2022-09-18T14:34:38.038Z,62.30
2022-09-18T14:37:25.951Z,62.70
2022-09-18T14:39:55.274Z,62.50
2022-09-18T14:42:32.657Z,61.50
2022-09-18T14:45:19.110Z,61.90
2022-09-18T14:47:49.953Z,63.30
2022-09-18T14:50:34.796Z,63.10
2022-09-18T14:53:19.182Z,63.30
2022-09-18T14:55:53.493Z,62.90
2022-09-18T14:58:23.161Z,64.00
2022-09-18T15:00:55.271Z,63.80
2022-09-18T15:03:27.221Z,64.30
2022-09-18T15:06:07.124Z,63.70
2022-09-18T15:08:35.391Z,63.30
2022-09-18T15:11:03.485Z,63.20
2022-09-18T15:13:44.974Z,62.80
2022-09-18T15:16:19.663Z,62.10
2022-09-18T15:18:49.269Z,62.80
2022-09-18T15:21:29.837Z,62.50
2022-09-18T15:24:02.249Z,62.20
2022-09-18T15:26:32.623Z,63.40
2022-09-18T15:29:02.326Z,63.00
2022-09-18T15:31:33.512Z,62.70
2022-09-18T15:34:06.891Z,62.30
2022-09-18T15:36:36.844Z,61.60
2022-09-18T15:39:06.687Z,60.70
2022-09-18T15:41:41.295Z,59.90
2022-09-18T15:44:46.218Z,61.00
2022-09-18T15:47:32.592Z,61.40
2022-09-18T15:50:03.557Z,60.90
2022-09-18T15:52:38.616Z,62.10
2022-09-18T15:55:15.769Z,61.30
2022-09-18T15:57:49.275Z,61.10
2022-09-18T16:00:18.948Z,60.70
2022-09-18T16:02:53.025Z,60.80
2022-09-18T16:05:23.157Z,58.70
2022-09-18T16:07:54.052Z,61.40
2022-09-18T16:10:51.019Z,61.00
2022-09-18T16:13:38.814Z,58.90
2022-09-18T16:16:26.402Z,58.80
2022-09-18T16:18:57.023Z,60.30
2022-09-18T16:21:30.025Z,59.80
2022-09-18T16:24:01.174Z,60.00
2022-09-18T16:26:32.197Z,59.50
2022-09-18T16:29:02.200Z,60.20
2022-09-18T16:31:32.860Z,60.30
2022-09-18T16:34:02.494Z,60.20
2022-09-18T16:36:37.038Z,59.60
2022-09-18T16:39:08.032Z,58.60
2022-09-18T16:41:36.537Z,58.40
2022-09-18T16:44:05.687Z,59.80
2022-09-18T16:46:38.493Z,60.30
2022-09-18T16:49:06.441Z,60.00
2022-09-18T16:51:35.585Z,61.00
2022-09-18T16:54:03.408Z,61.30
2022-09-18T16:56:35.715Z,61.50
2022-09-18T16:59:05.614Z,61.20
2022-09-18T17:02:00.087Z,61.00
2022-09-18T17:04:24.076Z,60.90
2022-09-18T17:06:53.601Z,60.80
2022-09-18T17:09:23.753Z,61.10
2022-09-18T17:11:51.674Z,61.00
2022-09-18T17:14:19.975Z,61.70
2022-09-18T17:16:48.045Z,61.20
2022-09-18T17:19:16.120Z,61.00
2022-09-18T17:21:43.962Z,60.80
2022-09-18T17:24:13.301Z,61.30
2022-09-18T17:26:42.130Z,61.30
2022-09-18T17:29:12.025Z,61.20
2022-09-18T17:31:40.686Z,61.60
2022-09-18T17:34:08.567Z,61.90
2022-09-18T17:36:36.822Z,62.20
2022-09-18T17:39:05.259Z,62.10
2022-09-18T17:41:34.733Z,61.50
2022-09-18T17:44:02.940Z,61.50
2022-09-18T17:46:30.758Z,62.50
2022-09-18T17:49:00.104Z,62.00
2022-09-18T17:51:29.237Z,62.20
2022-09-18T17:53:59.350Z,61.50
2022-09-18T17:56:29.856Z,61.40
2022-09-18T17:59:00.307Z,61.90
2022-09-18T18:01:29.645Z,61.60
2022-09-18T18:03:57.457Z,62.20
2022-09-18T18:06:25.706Z,62.00
2022-09-18T18:08:53.911Z,62.30
2022-09-18T18:11:23.618Z,62.70
2022-09-18T18:13:52.933Z,62.60
2022-09-18T18:16:23.988Z,62.70
2022-09-18T18:18:53.850Z,63.10
2022-09-18T18:21:22.324Z,63.40
2022-09-18T18:23:50.144Z,63.60
2022-09-18T18:26:17.947Z,64.00
2022-09-18T18:28:45.847Z,63.60
2022-09-18T18:31:15.104Z,63.80
2022-09-18T18:33:44.788Z,64.20
2022-09-18T18:36:14.734Z,63.60
2022-09-18T18:38:44.180Z,64.10
2022-09-18T18:41:13.819Z,64.40
2022-09-18T18:43:41.990Z,64.80
2022-09-18T18:46:12.760Z,64.90
2022-09-18T18:48:41.312Z,64.30
2022-09-18T18:51:14.994Z,64.50
2022-09-18T18:53:43.673Z,64.50
2022-09-18T18:56:14.976Z,64.40
2022-09-18T18:58:43.942Z,64.50
2022-09-18T19:01:14.589Z,64.30
2022-09-18T19:03:44.423Z,64.40
2022-09-18T19:06:14.542Z,63.70
2022-09-18T19:08:42.907Z,64.00
2022-09-18T19:11:10.694Z,64.20
2022-09-18T19:13:41.311Z,64.60
2022-09-18T19:16:09.300Z,64.60
2022-09-18T19:18:37.798Z,64.40
2022-09-18T19:21:06.206Z,64.30
2022-09-18T19:23:35.629Z,64.60
2022-09-18T19:26:03.557Z,64.70
2022-09-18T19:28:31.939Z,64.70
2022-09-18T19:31:04.139Z,64.50
2022-09-18T19:33:33.035Z,65.10
2022-09-18T19:36:05.169Z,65.20
2022-09-18T19:38:36.312Z,66.00
2022-09-18T19:41:20.082Z,66.30
2022-09-18T19:43:48.125Z,66.20
2022-09-18T19:46:24.070Z,65.80
2022-09-18T19:48:52.135Z,65.50
2022-09-18T19:51:20.482Z,65.50
2022-09-18T19:53:48.353Z,66.00
2022-09-18T19:56:33.397Z,65.60
2022-09-18T19:59:05.874Z,66.00
2022-09-18T20:01:33.952Z,65.80
2022-09-18T20:04:01.783Z,65.90
2022-09-18T20:06:32.174Z,66.10
2022-09-18T20:09:00.198Z,66.30
2022-09-18T20:11:29.335Z,65.80
2022-09-18T20:13:57.177Z,66.10
2022-09-18T20:16:25.128Z,67.60
2022-09-18T20:18:52.909Z,70.40
2022-09-18T20:21:20.810Z,71.70
2022-09-18T20:23:48.768Z,72.40
2022-09-18T20:26:18.173Z,73.40
2022-09-18T20:28:47.327Z,75.50
2022-09-18T20:31:16.937Z,76.40
2022-09-18T20:33:44.996Z,77.40
2022-09-18T20:36:12.858Z,77.70
2022-09-18T20:38:42.144Z,79.00
2022-09-18T20:41:13.456Z,79.30
2022-09-18T20:43:42.267Z,80.10
2022-09-18T20:46:15.587Z,80.50
2022-09-18T20:48:55.486Z,80.70
2022-09-18T20:51:25.110Z,82.00
2022-09-18T20:53:56.115Z,83.20
2022-09-18T20:56:25.098Z,84.80
2022-09-18T20:58:53.273Z,85.80
2022-09-18T21:01:24.566Z,86.80
2022-09-18T21:03:56.461Z,88.30
2022-09-18T21:06:26.253Z,89.80
2022-09-18T21:08:55.375Z,90.80
2022-09-18T21:11:26.410Z,91.10
2022-09-18T21:13:55.924Z,90.50
2022-09-18T21:16:26.750Z,89.70
2022-09-18T21:18:57.657Z,89.00
2022-09-18T21:21:26.577Z,88.70
2022-09-18T21:23:56.559Z,88.60
2022-09-18T21:26:26.037Z,86.20
2022-09-18T21:28:55.154Z,83.70
2022-09-18T21:31:23.271Z,84.20
2022-09-18T21:33:53.183Z,84.00
2022-09-18T21:36:21.886Z,84.00
2022-09-18T21:38:50.939Z,84.90
2022-09-18T21:41:21.301Z,85.40
2022-09-18T21:43:51.078Z,86.30
2022-09-18T21:46:20.747Z,86.90
2022-09-18T21:48:52.889Z,87.40
2022-09-18T21:51:22.311Z,88.10
2022-09-18T21:53:50.381Z,88.80
2022-09-18T21:56:20.406Z,89.00
2022-09-18T21:58:49.010Z,87.40
2022-09-18T22:01:19.107Z,87.30
2022-09-18T22:03:52.190Z,85.50
2022-09-18T22:06:22.827Z,85.50
2022-09-18T22:08:52.370Z,85.30
2022-09-18T22:11:22.754Z,84.00
2022-09-18T22:13:51.816Z,81.90
2022-09-18T22:16:19.972Z,79.30
2022-09-18T22:18:48.577Z,79.60
2022-09-18T22:21:20.364Z,79.70
2022-09-18T22:23:54.171Z,78.70
2022-09-18T22:26:23.121Z,80.40
2022-09-18T22:28:52.915Z,79.60
2022-09-18T22:31:21.893Z,78.40
2022-09-18T22:33:53.488Z,78.60
2022-09-18T22:36:21.984Z,79.70
2022-09-18T22:38:49.791Z,78.30
2022-09-18T22:41:19.158Z,77.50
2022-09-18T22:43:47.151Z,77.30
2022-09-18T22:46:16.538Z,78.90
2022-09-18T22:48:45.037Z,78.40
2022-09-18T22:51:15.394Z,77.70
2022-09-18T22:53:48.893Z,76.70
2022-09-18T22:56:19.186Z,76.50
2022-09-18T22:58:47.306Z,75.30
2022-09-18T23:01:18.201Z,75.20
2022-09-18T23:03:47.095Z,75.40
2022-09-18T23:06:16.024Z,76.90
2022-09-18T23:08:44.714Z,77.40
2022-09-18T23:11:15.175Z,77.50
2022-09-18T23:13:51.538Z,77.80
2022-09-18T23:16:20.193Z,78.60
2022-09-18T23:18:49.965Z,79.30
2022-09-18T23:21:18.228Z,80.10
2022-09-18T23:23:48.105Z,79.70
2022-09-18T23:26:19.304Z,80.90
2022-09-18T23:28:48.761Z,80.20
2022-09-18T23:31:19.112Z,81.00
2022-09-18T23:33:49.351Z,82.00
2022-09-18T23:36:19.227Z,82.10
2022-09-18T23:38:47.847Z,81.10
2022-09-18T23:41:17.343Z,81.80
2022-09-18T23:43:49.102Z,82.10
2022-09-18T23:46:17.900Z,82.00
2022-09-18T23:48:47.361Z,83.20
2022-09-18T23:51:16.044Z,82.80
2022-09-18T23:53:43.872Z,82.30
2022-09-18T23:56:13.452Z,83.00
2022-09-18T23:58:41.781Z,83.70
